Bentley, Illinois
Current Conditions -  °F | °C
As of 6:55 PM on Saturday 22 Nov 2014 (Local Time) from KMQB Reporting Station
Scattered Clouds Scattered Clouds  
Wind Chill: 52°   Ceiling: Unl
Heat Index: 52°   Visibility: 10mi
Dew Point: 47°   Wind: 13mph
Humidity: 83%   Direction: 170°S
Pressure: 29.86"   Gusts: NA
Location:  40.4155°N, 91.0269°W
Report Text: KMQB 230055Z AUTO 17011KT 10SM SCT027 SCT055 11/08 A2986 RMK AO2 T01110083
Loading
Personal Weather Stations






























Interactive Weather Map New forecast layout! Learn more

10-Day Weather Forecast

Advertisements
Track Severe Weather on mobile